sensor_id;sensor_type;location;lat;lon;timestamp;P1;durP1;ratioP1;P2;durP2;ratioP2
75781;SDS011;64400;44.762;37.698;2023-04-10T00:01:15;26.95;;;14.25;;
75781;SDS011;64400;44.762;37.698;2023-04-10T00:03:43;27.25;;;13.98;;
75781;SDS011;64400;44.762;37.698;2023-04-10T00:06:12;27.48;;;14.02;;
75781;SDS011;64400;44.762;37.698;2023-04-10T00:08:40;25.02;;;13.35;;
75781;SDS011;64400;44.762;37.698;2023-04-10T00:11:07;26.92;;;14.48;;
75781;SDS011;64400;44.762;37.698;2023-04-10T00:13:35;27.45;;;14.07;;
75781;SDS011;64400;44.762;37.698;2023-04-10T00:16:04;27.52;;;14.00;;
75781;SDS011;64400;44.762;37.698;2023-04-10T00:18:32;26.02;;;12.93;;
75781;SDS011;64400;44.762;37.698;2023-04-10T00:21:01;25.08;;;12.63;;
75781;SDS011;64400;44.762;37.698;2023-04-10T00:23:30;23.70;;;12.90;;
75781;SDS011;64400;44.762;37.698;2023-04-10T00:26:01;27.27;;;13.73;;
75781;SDS011;64400;44.762;37.698;2023-04-10T00:28:29;25.80;;;14.20;;
75781;SDS011;64400;44.762;37.698;2023-04-10T00:30:57;25.85;;;13.20;;
75781;SDS011;64400;44.762;37.698;2023-04-10T00:33:25;25.63;;;13.43;;
75781;SDS011;64400;44.762;37.698;2023-04-10T00:35:53;27.08;;;12.98;;
75781;SDS011;64400;44.762;37.698;2023-04-10T00:38:21;24.95;;;13.38;;
75781;SDS011;64400;44.762;37.698;2023-04-10T00:40:49;24.38;;;12.95;;
75781;SDS011;64400;44.762;37.698;2023-04-10T00:43:17;26.15;;;13.75;;
75781;SDS011;64400;44.762;37.698;2023-04-10T00:45:46;26.42;;;14.45;;
75781;SDS011;64400;44.762;37.698;2023-04-10T00:48:16;24.38;;;12.40;;
75781;SDS011;64400;44.762;37.698;2023-04-10T00:50:45;27.02;;;13.75;;
75781;SDS011;64400;44.762;37.698;2023-04-10T00:53:13;24.75;;;13.48;;
75781;SDS011;64400;44.762;37.698;2023-04-10T00:55:41;25.55;;;13.32;;
75781;SDS011;64400;44.762;37.698;2023-04-10T00:58:15;26.00;;;13.05;;
75781;SDS011;64400;44.762;37.698;2023-04-10T01:00:43;28.35;;;12.80;;
75781;SDS011;64400;44.762;37.698;2023-04-10T01:03:11;25.80;;;12.32;;
75781;SDS011;64400;44.762;37.698;2023-04-10T01:08:46;26.58;;;13.57;;
75781;SDS011;64400;44.762;37.698;2023-04-10T01:11:49;26.27;;;13.80;;
75781;SDS011;64400;44.762;37.698;2023-04-10T01:17:30;26.58;;;14.02;;
75781;SDS011;64400;44.762;37.698;2023-04-10T01:20:13;28.83;;;14.52;;
75781;SDS011;64400;44.762;37.698;2023-04-10T01:22:51;26.15;;;14.45;;
75781;SDS011;64400;44.762;37.698;2023-04-10T01:25:47;28.73;;;14.13;;
75781;SDS011;64400;44.762;37.698;2023-04-10T01:28:23;28.55;;;14.13;;
75781;SDS011;64400;44.762;37.698;2023-04-10T01:31:17;27.33;;;14.60;;
75781;SDS011;64400;44.762;37.698;2023-04-10T01:33:53;28.02;;;13.95;;
75781;SDS011;64400;44.762;37.698;2023-04-10T01:36:35;29.20;;;15.43;;
75781;SDS011;64400;44.762;37.698;2023-04-10T01:39:18;24.98;;;13.63;;
75781;SDS011;64400;44.762;37.698;2023-04-10T01:41:48;28.02;;;14.65;;
75781;SDS011;64400;44.762;37.698;2023-04-10T01:44:33;29.00;;;15.00;;
75781;SDS011;64400;44.762;37.698;2023-04-10T01:47:04;27.10;;;13.57;;
75781;SDS011;64400;44.762;37.698;2023-04-10T01:49:34;26.10;;;13.88;;
75781;SDS011;64400;44.762;37.698;2023-04-10T01:52:04;26.20;;;13.50;;
75781;SDS011;64400;44.762;37.698;2023-04-10T01:54:33;26.70;;;13.52;;
75781;SDS011;64400;44.762;37.698;2023-04-10T01:57:07;26.17;;;14.20;;
75781;SDS011;64400;44.762;37.698;2023-04-10T01:59:48;25.50;;;13.77;;
75781;SDS011;64400;44.762;37.698;2023-04-10T02:02:17;27.05;;;14.07;;
75781;SDS011;64400;44.762;37.698;2023-04-10T02:04:45;27.33;;;13.48;;
75781;SDS011;64400;44.762;37.698;2023-04-10T02:07:26;25.90;;;13.23;;
75781;SDS011;64400;44.762;37.698;2023-04-10T02:12:50;28.55;;;13.98;;
75781;SDS011;64400;44.762;37.698;2023-04-10T02:15:22;28.10;;;14.43;;
75781;SDS011;64400;44.762;37.698;2023-04-10T02:17:53;27.10;;;13.88;;
75781;SDS011;64400;44.762;37.698;2023-04-10T02:20:23;25.85;;;13.02;;
75781;SDS011;64400;44.762;37.698;2023-04-10T02:22:51;25.33;;;13.45;;
75781;SDS011;64400;44.762;37.698;2023-04-10T02:25:20;25.48;;;13.27;;
75781;SDS011;64400;44.762;37.698;2023-04-10T02:27:48;25.52;;;13.35;;
75781;SDS011;64400;44.762;37.698;2023-04-10T02:30:16;28.80;;;13.40;;
75781;SDS011;64400;44.762;37.698;2023-04-10T02:32:44;25.70;;;12.73;;
75781;SDS011;64400;44.762;37.698;2023-04-10T02:35:12;28.90;;;14.60;;
75781;SDS011;64400;44.762;37.698;2023-04-10T02:37:40;27.63;;;13.85;;
75781;SDS011;64400;44.762;37.698;2023-04-10T02:40:09;29.70;;;14.73;;
75781;SDS011;64400;44.762;37.698;2023-04-10T02:42:46;30.55;;;13.45;;
75781;SDS011;64400;44.762;37.698;2023-04-10T02:45:14;32.55;;;15.70;;
75781;SDS011;64400;44.762;37.698;2023-04-10T02:47:43;32.25;;;15.00;;
75781;SDS011;64400;44.762;37.698;2023-04-10T02:50:11;29.95;;;14.23;;
75781;SDS011;64400;44.762;37.698;2023-04-10T02:52:43;29.58;;;14.15;;
75781;SDS011;64400;44.762;37.698;2023-04-10T02:55:11;31.58;;;15.35;;
75781;SDS011;64400;44.762;37.698;2023-04-10T02:57:45;33.00;;;15.15;;
75781;SDS011;64400;44.762;37.698;2023-04-10T03:00:13;33.47;;;15.63;;
75781;SDS011;64400;44.762;37.698;2023-04-10T03:03:00;33.60;;;15.53;;
75781;SDS011;64400;44.762;37.698;2023-04-10T03:05:35;30.27;;;14.70;;
75781;SDS011;64400;44.762;37.698;2023-04-10T03:08:03;28.08;;;14.68;;
75781;SDS011;64400;44.762;37.698;2023-04-10T03:10:31;31.70;;;14.98;;
75781;SDS011;64400;44.762;37.698;2023-04-10T03:12:59;26.35;;;12.63;;
75781;SDS011;64400;44.762;37.698;2023-04-10T03:15:28;25.67;;;14.18;;
75781;SDS011;64400;44.762;37.698;2023-04-10T03:17:57;28.13;;;14.43;;
75781;SDS011;64400;44.762;37.698;2023-04-10T03:20:25;25.98;;;13.73;;
75781;SDS011;64400;44.762;37.698;2023-04-10T03:22:54;23.35;;;12.85;;
75781;SDS011;64400;44.762;37.698;2023-04-10T03:25:25;25.23;;;13.05;;
75781;SDS011;64400;44.762;37.698;2023-04-10T03:27:53;24.80;;;13.02;;
75781;SDS011;64400;44.762;37.698;2023-04-10T03:30:22;14.57;;;7.15;;
75781;SDS011;64400;44.762;37.698;2023-04-10T03:32:50;21.92;;;10.88;;
75781;SDS011;64400;44.762;37.698;2023-04-10T03:35:18;21.35;;;11.95;;
75781;SDS011;64400;44.762;37.698;2023-04-10T03:37:46;21.42;;;11.45;;
75781;SDS011;64400;44.762;37.698;2023-04-10T03:40:14;21.00;;;11.00;;
75781;SDS011;64400;44.762;37.698;2023-04-10T03:42:42;20.30;;;11.15;;
75781;SDS011;64400;44.762;37.698;2023-04-10T03:45:11;22.00;;;11.23;;
75781;SDS011;64400;44.762;37.698;2023-04-10T03:47:39;20.95;;;11.50;;
75781;SDS011;64400;44.762;37.698;2023-04-10T03:50:09;21.10;;;11.07;;
75781;SDS011;64400;44.762;37.698;2023-04-10T03:52:45;19.23;;;10.73;;
75781;SDS011;64400;44.762;37.698;2023-04-10T03:55:15;19.70;;;11.00;;
75781;SDS011;64400;44.762;37.698;2023-04-10T03:57:53;20.50;;;11.18;;
75781;SDS011;64400;44.762;37.698;2023-04-10T04:00:23;17.83;;;10.10;;
75781;SDS011;64400;44.762;37.698;2023-04-10T04:02:59;19.67;;;10.32;;
75781;SDS011;64400;44.762;37.698;2023-04-10T04:05:47;20.23;;;10.50;;
75781;SDS011;64400;44.762;37.698;2023-04-10T04:08:26;17.33;;;9.77;;
75781;SDS011;64400;44.762;37.698;2023-04-10T04:11:06;20.52;;;10.13;;
75781;SDS011;64400;44.762;37.698;2023-04-10T04:13:51;18.42;;;9.82;;
75781;SDS011;64400;44.762;37.698;2023-04-10T04:16:45;15.48;;;8.65;;
75781;SDS011;64400;44.762;37.698;2023-04-10T04:19:32;19.00;;;9.97;;
75781;SDS011;64400;44.762;37.698;2023-04-10T04:22:19;19.58;;;9.93;;
75781;SDS011;64400;44.762;37.698;2023-04-10T04:25:06;17.13;;;8.33;;
75781;SDS011;64400;44.762;37.698;2023-04-10T04:27:57;20.58;;;9.90;;
75781;SDS011;64400;44.762;37.698;2023-04-10T04:30:44;16.95;;;9.65;;
75781;SDS011;64400;44.762;37.698;2023-04-10T04:33:27;18.02;;;9.63;;
75781;SDS011;64400;44.762;37.698;2023-04-10T04:36:05;22.95;;;9.73;;
75781;SDS011;64400;44.762;37.698;2023-04-10T04:38:36;17.00;;;9.25;;
75781;SDS011;64400;44.762;37.698;2023-04-10T04:41:13;20.17;;;9.90;;
75781;SDS011;64400;44.762;37.698;2023-04-10T04:44:03;16.33;;;8.95;;
75781;SDS011;64400;44.762;37.698;2023-04-10T04:47:10;14.57;;;8.80;;
75781;SDS011;64400;44.762;37.698;2023-04-10T04:50:02;14.55;;;8.40;;
75781;SDS011;64400;44.762;37.698;2023-04-10T04:52:49;19.77;;;8.70;;
75781;SDS011;64400;44.762;37.698;2023-04-10T04:55:31;17.70;;;8.27;;
75781;SDS011;64400;44.762;37.698;2023-04-10T04:58:19;15.40;;;8.57;;
75781;SDS011;64400;44.762;37.698;2023-04-10T05:00:57;18.48;;;8.45;;
75781;SDS011;64400;44.762;37.698;2023-04-10T05:03:46;17.33;;;8.10;;
75781;SDS011;64400;44.762;37.698;2023-04-10T05:06:35;15.85;;;8.52;;
75781;SDS011;64400;44.762;37.698;2023-04-10T05:09:20;13.20;;;7.30;;
75781;SDS011;64400;44.762;37.698;2023-04-10T05:12:07;16.30;;;7.90;;
75781;SDS011;64400;44.762;37.698;2023-04-10T05:15:02;15.55;;;7.53;;
75781;SDS011;64400;44.762;37.698;2023-04-10T05:17:40;16.85;;;7.72;;
75781;SDS011;64400;44.762;37.698;2023-04-10T05:20:35;14.82;;;7.18;;
75781;SDS011;64400;44.762;37.698;2023-04-10T05:23:35;13.80;;;7.22;;
75781;SDS011;64400;44.762;37.698;2023-04-10T05:26:22;13.30;;;6.85;;
75781;SDS011;64400;44.762;37.698;2023-04-10T05:29:10;14.38;;;7.20;;
75781;SDS011;64400;44.762;37.698;2023-04-10T05:32:11;16.88;;;7.22;;
75781;SDS011;64400;44.762;37.698;2023-04-10T05:35:09;12.27;;;6.43;;
75781;SDS011;64400;44.762;37.698;2023-04-10T05:37:46;16.45;;;7.38;;
75781;SDS011;64400;44.762;37.698;2023-04-10T05:40:37;15.02;;;6.82;;
75781;SDS011;64400;44.762;37.698;2023-04-10T05:43:28;14.35;;;6.70;;
75781;SDS011;64400;44.762;37.698;2023-04-10T05:46:10;14.18;;;6.55;;
75781;SDS011;64400;44.762;37.698;2023-04-10T05:48:49;18.90;;;6.68;;
75781;SDS011;64400;44.762;37.698;2023-04-10T05:51:50;16.48;;;6.72;;
75781;SDS011;64400;44.762;37.698;2023-04-10T05:54:51;18.45;;;7.10;;
75781;SDS011;64400;44.762;37.698;2023-04-10T05:57:31;20.80;;;7.22;;
75781;SDS011;64400;44.762;37.698;2023-04-10T06:00:25;25.35;;;5.93;;
75781;SDS011;64400;44.762;37.698;2023-04-10T06:03:23;13.85;;;7.57;;
75781;SDS011;64400;44.762;37.698;2023-04-10T06:06:02;17.27;;;7.15;;
75781;SDS011;64400;44.762;37.698;2023-04-10T06:08:31;15.52;;;6.25;;
75781;SDS011;64400;44.762;37.698;2023-04-10T06:11:01;24.88;;;6.35;;
75781;SDS011;64400;44.762;37.698;2023-04-10T06:13:30;19.45;;;7.45;;
75781;SDS011;64400;44.762;37.698;2023-04-10T06:16:01;14.32;;;6.35;;
75781;SDS011;64400;44.762;37.698;2023-04-10T06:18:30;15.50;;;6.63;;
75781;SDS011;64400;44.762;37.698;2023-04-10T06:20:58;22.27;;;7.20;;
75781;SDS011;64400;44.762;37.698;2023-04-10T06:23:28;18.88;;;7.28;;
75781;SDS011;64400;44.762;37.698;2023-04-10T06:25:56;15.75;;;6.60;;
75781;SDS011;64400;44.762;37.698;2023-04-10T06:28:25;21.33;;;6.85;;
75781;SDS011;64400;44.762;37.698;2023-04-10T06:30:57;18.65;;;6.90;;
75781;SDS011;64400;44.762;37.698;2023-04-10T06:33:31;24.35;;;7.45;;
75781;SDS011;64400;44.762;37.698;2023-04-10T06:36:03;13.52;;;6.05;;
75781;SDS011;64400;44.762;37.698;2023-04-10T06:38:37;29.60;;;7.07;;
75781;SDS011;64400;44.762;37.698;2023-04-10T06:41:05;12.18;;;5.28;;
75781;SDS011;64400;44.762;37.698;2023-04-10T06:43:34;11.32;;;5.05;;
75781;SDS011;64400;44.762;37.698;2023-04-10T06:46:03;18.88;;;6.40;;
75781;SDS011;64400;44.762;37.698;2023-04-10T06:48:32;17.33;;;6.43;;
75781;SDS011;64400;44.762;37.698;2023-04-10T06:51:00;8.95;;;4.80;;
75781;SDS011;64400;44.762;37.698;2023-04-10T06:53:28;13.20;;;5.70;;
75781;SDS011;64400;44.762;37.698;2023-04-10T06:55:57;10.70;;;5.32;;
75781;SDS011;64400;44.762;37.698;2023-04-10T06:58:34;14.88;;;5.82;;
75781;SDS011;64400;44.762;37.698;2023-04-10T07:01:02;11.88;;;5.25;;
75781;SDS011;64400;44.762;37.698;2023-04-10T07:03:31;16.90;;;7.32;;
75781;SDS011;64400;44.762;37.698;2023-04-10T07:06:00;22.15;;;7.25;;
75781;SDS011;64400;44.762;37.698;2023-04-10T07:08:29;15.93;;;6.70;;
75781;SDS011;64400;44.762;37.698;2023-04-10T07:10:57;15.32;;;7.18;;
75781;SDS011;64400;44.762;37.698;2023-04-10T07:13:25;11.75;;;6.65;;
75781;SDS011;64400;44.762;37.698;2023-04-10T07:15:53;21.42;;;6.57;;
75781;SDS011;64400;44.762;37.698;2023-04-10T07:18:21;12.70;;;6.25;;
75781;SDS011;64400;44.762;37.698;2023-04-10T07:20:50;15.43;;;7.28;;
75781;SDS011;64400;44.762;37.698;2023-04-10T07:23:18;15.95;;;7.35;;
75781;SDS011;64400;44.762;37.698;2023-04-10T07:25:47;16.70;;;7.22;;
75781;SDS011;64400;44.762;37.698;2023-04-10T07:28:15;18.90;;;6.50;;
75781;SDS011;64400;44.762;37.698;2023-04-10T07:30:43;17.25;;;7.30;;
75781;SDS011;64400;44.762;37.698;2023-04-10T07:33:11;18.48;;;7.03;;
75781;SDS011;64400;44.762;37.698;2023-04-10T07:35:40;16.50;;;7.28;;
75781;SDS011;64400;44.762;37.698;2023-04-10T07:38:09;17.35;;;7.30;;
75781;SDS011;64400;44.762;37.698;2023-04-10T07:40:38;16.77;;;7.53;;
75781;SDS011;64400;44.762;37.698;2023-04-10T07:43:06;13.27;;;7.30;;
75781;SDS011;64400;44.762;37.698;2023-04-10T07:45:35;20.55;;;7.28;;
75781;SDS011;64400;44.762;37.698;2023-04-10T07:48:03;15.63;;;6.68;;
75781;SDS011;64400;44.762;37.698;2023-04-10T07:50:32;13.20;;;6.72;;
75781;SDS011;64400;44.762;37.698;2023-04-10T07:53:02;15.13;;;5.88;;
75781;SDS011;64400;44.762;37.698;2023-04-10T07:55:52;16.92;;;8.30;;
75781;SDS011;64400;44.762;37.698;2023-04-10T07:58:26;14.90;;;7.95;;
75781;SDS011;64400;44.762;37.698;2023-04-10T08:00:54;11.60;;;6.22;;
75781;SDS011;64400;44.762;37.698;2023-04-10T08:03:22;16.40;;;7.15;;
75781;SDS011;64400;44.762;37.698;2023-04-10T08:05:51;14.07;;;7.78;;
75781;SDS011;64400;44.762;37.698;2023-04-10T08:08:19;16.95;;;7.53;;
75781;SDS011;64400;44.762;37.698;2023-04-10T08:10:47;12.48;;;6.65;;
75781;SDS011;64400;44.762;37.698;2023-04-10T08:13:15;14.55;;;6.78;;
75781;SDS011;64400;44.762;37.698;2023-04-10T08:15:43;15.02;;;7.75;;
75781;SDS011;64400;44.762;37.698;2023-04-10T08:18:12;15.15;;;7.80;;
75781;SDS011;64400;44.762;37.698;2023-04-10T08:20:40;12.50;;;6.82;;
75781;SDS011;64400;44.762;37.698;2023-04-10T08:23:08;15.20;;;7.22;;
75781;SDS011;64400;44.762;37.698;2023-04-10T08:25:46;16.17;;;8.80;;
75781;SDS011;64400;44.762;37.698;2023-04-10T08:28:15;13.98;;;8.27;;
75781;SDS011;64400;44.762;37.698;2023-04-10T08:30:43;17.63;;;9.10;;
75781;SDS011;64400;44.762;37.698;2023-04-10T08:33:11;19.92;;;9.63;;
75781;SDS011;64400;44.762;37.698;2023-04-10T08:35:39;21.00;;;9.45;;
75781;SDS011;64400;44.762;37.698;2023-04-10T08:38:07;17.40;;;9.00;;
75781;SDS011;64400;44.762;37.698;2023-04-10T08:40:40;15.75;;;9.20;;
75781;SDS011;64400;44.762;37.698;2023-04-10T08:43:11;21.23;;;9.90;;
75781;SDS011;64400;44.762;37.698;2023-04-10T08:45:39;22.35;;;9.35;;
75781;SDS011;64400;44.762;37.698;2023-04-10T08:48:07;24.48;;;9.43;;
75781;SDS011;64400;44.762;37.698;2023-04-10T08:50:40;20.63;;;9.60;;
75781;SDS011;64400;44.762;37.698;2023-04-10T08:53:11;20.13;;;10.48;;
75781;SDS011;64400;44.762;37.698;2023-04-10T08:55:40;16.70;;;9.45;;
75781;SDS011;64400;44.762;37.698;2023-04-10T08:58:15;19.15;;;9.93;;
75781;SDS011;64400;44.762;37.698;2023-04-10T09:00:44;22.50;;;10.10;;
75781;SDS011;64400;44.762;37.698;2023-04-10T09:03:13;19.25;;;8.73;;
75781;SDS011;64400;44.762;37.698;2023-04-10T09:05:42;14.88;;;8.63;;
75781;SDS011;64400;44.762;37.698;2023-04-10T09:08:10;19.85;;;10.32;;
75781;SDS011;64400;44.762;37.698;2023-04-10T09:10:41;51.17;;;13.00;;
75781;SDS011;64400;44.762;37.698;2023-04-10T09:13:09;27.42;;;14.90;;
75781;SDS011;64400;44.762;37.698;2023-04-10T09:15:57;27.23;;;14.25;;
75781;SDS011;64400;44.762;37.698;2023-04-10T09:21:14;18.20;;;10.50;;
75781;SDS011;64400;44.762;37.698;2023-04-10T09:23:45;19.85;;;9.98;;
75781;SDS011;64400;44.762;37.698;2023-04-10T09:26:30;20.10;;;10.32;;
75781;SDS011;64400;44.762;37.698;2023-04-10T09:29:01;15.63;;;8.38;;
75781;SDS011;64400;44.762;37.698;2023-04-10T09:31:31;19.83;;;9.20;;
75781;SDS011;64400;44.762;37.698;2023-04-10T09:34:20;15.48;;;8.25;;
75781;SDS011;64400;44.762;37.698;2023-04-10T09:36:53;15.20;;;8.45;;
75781;SDS011;64400;44.762;37.698;2023-04-10T09:39:37;12.93;;;7.50;;
75781;SDS011;64400;44.762;37.698;2023-04-10T09:42:12;19.95;;;8.00;;
75781;SDS011;64400;44.762;37.698;2023-04-10T09:44:41;17.05;;;8.18;;
75781;SDS011;64400;44.762;37.698;2023-04-10T09:54:47;16.45;;;7.18;;
75781;SDS011;64400;44.762;37.698;2023-04-10T09:57:22;14.35;;;7.70;;
75781;SDS011;64400;44.762;37.698;2023-04-10T09:59:52;18.17;;;9.40;;
75781;SDS011;64400;44.762;37.698;2023-04-10T10:02:23;19.75;;;8.23;;
75781;SDS011;64400;44.762;37.698;2023-04-10T10:04:52;13.98;;;8.57;;
75781;SDS011;64400;44.762;37.698;2023-04-10T10:07:22;17.98;;;8.75;;
75781;SDS011;64400;44.762;37.698;2023-04-10T10:09:51;16.38;;;7.63;;
75781;SDS011;64400;44.762;37.698;2023-04-10T10:12:23;13.40;;;7.28;;
75781;SDS011;64400;44.762;37.698;2023-04-10T10:18:12;17.08;;;7.95;;
75781;SDS011;64400;44.762;37.698;2023-04-10T10:20:51;14.95;;;7.47;;
75781;SDS011;64400;44.762;37.698;2023-04-10T10:23:20;12.95;;;7.15;;
75781;SDS011;64400;44.762;37.698;2023-04-10T10:25:49;12.75;;;7.47;;
75781;SDS011;64400;44.762;37.698;2023-04-10T10:28:19;12.02;;;8.02;;
75781;SDS011;64400;44.762;37.698;2023-04-10T10:30:48;14.65;;;7.93;;
75781;SDS011;64400;44.762;37.698;2023-04-10T10:33:16;17.15;;;9.32;;
75781;SDS011;64400;44.762;37.698;2023-04-10T10:35:45;15.30;;;8.43;;
75781;SDS011;64400;44.762;37.698;2023-04-10T10:38:14;16.25;;;9.13;;
75781;SDS011;64400;44.762;37.698;2023-04-10T10:41:05;15.15;;;9.30;;
75781;SDS011;64400;44.762;37.698;2023-04-10T10:47:03;19.02;;;9.00;;
75781;SDS011;64400;44.762;37.698;2023-04-10T10:49:19;12.77;;;7.13;;
75781;SDS011;64400;44.762;37.698;2023-04-10T10:51:48;14.88;;;7.75;;
75781;SDS011;64400;44.762;37.698;2023-04-10T10:54:33;13.63;;;8.75;;
75781;SDS011;64400;44.762;37.698;2023-04-10T11:00:13;18.75;;;9.15;;
75781;SDS011;64400;44.762;37.698;2023-04-10T11:02:42;14.57;;;8.55;;
75781;SDS011;64400;44.762;37.698;2023-04-10T11:05:33;12.18;;;7.68;;
75781;SDS011;64400;44.762;37.698;2023-04-10T11:08:34;17.08;;;8.85;;
75781;SDS011;64400;44.762;37.698;2023-04-10T11:11:06;15.95;;;8.85;;
75781;SDS011;64400;44.762;37.698;2023-04-10T11:13:36;20.83;;;9.77;;
75781;SDS011;64400;44.762;37.698;2023-04-10T11:46:38;20.23;;;10.80;;
75781;SDS011;64400;44.762;37.698;2023-04-10T11:53:18;14.25;;;8.55;;
75781;SDS011;64400;44.762;37.698;2023-04-10T11:55:48;12.48;;;7.65;;
75781;SDS011;64400;44.762;37.698;2023-04-10T11:58:42;13.57;;;7.40;;
75781;SDS011;64400;44.762;37.698;2023-04-10T12:01:11;11.20;;;6.72;;
75781;SDS011;64400;44.762;37.698;2023-04-10T12:03:41;15.68;;;7.15;;
75781;SDS011;64400;44.762;37.698;2023-04-10T12:06:30;13.07;;;6.63;;
75781;SDS011;64400;44.762;37.698;2023-04-10T12:09:20;14.93;;;7.45;;
75781;SDS011;64400;44.762;37.698;2023-04-10T12:11:57;14.20;;;7.05;;
75781;SDS011;64400;44.762;37.698;2023-04-10T12:14:30;13.70;;;6.93;;
75781;SDS011;64400;44.762;37.698;2023-04-10T12:16:59;14.45;;;7.65;;
75781;SDS011;64400;44.762;37.698;2023-04-10T12:19:29;14.13;;;7.10;;
75781;SDS011;64400;44.762;37.698;2023-04-10T12:22:12;13.48;;;7.47;;
75781;SDS011;64400;44.762;37.698;2023-04-10T12:27:22;13.38;;;7.35;;
75781;SDS011;64400;44.762;37.698;2023-04-10T12:29:56;13.82;;;8.00;;
75781;SDS011;64400;44.762;37.698;2023-04-10T12:32:25;16.80;;;8.85;;
75781;SDS011;64400;44.762;37.698;2023-04-10T12:34:57;15.90;;;8.90;;
75781;SDS011;64400;44.762;37.698;2023-04-10T12:40:16;15.70;;;9.07;;
75781;SDS011;64400;44.762;37.698;2023-04-10T12:42:44;14.65;;;8.60;;
75781;SDS011;64400;44.762;37.698;2023-04-10T12:45:13;20.58;;;9.15;;
75781;SDS011;64400;44.762;37.698;2023-04-10T12:47:48;16.67;;;8.70;;
75781;SDS011;64400;44.762;37.698;2023-04-10T12:50:22;18.02;;;9.43;;
75781;SDS011;64400;44.762;37.698;2023-04-10T12:53:02;19.25;;;9.70;;
75781;SDS011;64400;44.762;37.698;2023-04-10T12:58:38;17.67;;;9.65;;
75781;SDS011;64400;44.762;37.698;2023-04-10T13:01:09;15.93;;;10.02;;
75781;SDS011;64400;44.762;37.698;2023-04-10T13:03:39;17.77;;;10.20;;
75781;SDS011;64400;44.762;37.698;2023-04-10T13:06:08;23.40;;;10.52;;
75781;SDS011;64400;44.762;37.698;2023-04-10T13:08:36;18.23;;;10.13;;
75781;SDS011;64400;44.762;37.698;2023-04-10T13:11:04;22.10;;;10.63;;
75781;SDS011;64400;44.762;37.698;2023-04-10T13:13:33;17.58;;;9.90;;
75781;SDS011;64400;44.762;37.698;2023-04-10T13:16:01;17.55;;;10.23;;
75781;SDS011;64400;44.762;37.698;2023-04-10T13:18:30;19.33;;;10.45;;
75781;SDS011;64400;44.762;37.698;2023-04-10T13:20:58;18.70;;;10.85;;
75781;SDS011;64400;44.762;37.698;2023-04-10T13:23:26;19.48;;;10.45;;
75781;SDS011;64400;44.762;37.698;2023-04-10T13:25:55;18.83;;;10.10;;
75781;SDS011;64400;44.762;37.698;2023-04-10T13:28:25;19.05;;;10.10;;
75781;SDS011;64400;44.762;37.698;2023-04-10T13:30:53;20.85;;;11.35;;
75781;SDS011;64400;44.762;37.698;2023-04-10T13:33:23;19.10;;;10.23;;
75781;SDS011;64400;44.762;37.698;2023-04-10T13:35:51;17.25;;;10.50;;
75781;SDS011;64400;44.762;37.698;2023-04-10T13:38:19;18.17;;;9.43;;
75781;SDS011;64400;44.762;37.698;2023-04-10T13:40:47;22.75;;;10.40;;
75781;SDS011;64400;44.762;37.698;2023-04-10T13:43:16;21.20;;;10.15;;
75781;SDS011;64400;44.762;37.698;2023-04-10T13:45:44;19.17;;;10.90;;
75781;SDS011;64400;44.762;37.698;2023-04-10T13:48:12;18.30;;;10.65;;
75781;SDS011;64400;44.762;37.698;2023-04-10T13:50:44;17.85;;;10.32;;
75781;SDS011;64400;44.762;37.698;2023-04-10T13:53:13;20.73;;;10.98;;
75781;SDS011;64400;44.762;37.698;2023-04-10T13:55:41;18.35;;;10.88;;
75781;SDS011;64400;44.762;37.698;2023-04-10T13:58:15;18.75;;;9.77;;
75781;SDS011;64400;44.762;37.698;2023-04-10T14:00:43;19.77;;;11.20;;
75781;SDS011;64400;44.762;37.698;2023-04-10T14:03:12;18.48;;;10.65;;
75781;SDS011;64400;44.762;37.698;2023-04-10T14:05:40;22.38;;;10.98;;
75781;SDS011;64400;44.762;37.698;2023-04-10T14:08:09;23.17;;;9.90;;
75781;SDS011;64400;44.762;37.698;2023-04-10T14:10:38;13.52;;;8.45;;
75781;SDS011;64400;44.762;37.698;2023-04-10T14:13:06;16.35;;;9.05;;
75781;SDS011;64400;44.762;37.698;2023-04-10T14:15:35;17.40;;;8.80;;
75781;SDS011;64400;44.762;37.698;2023-04-10T14:18:03;19.30;;;9.63;;
75781;SDS011;64400;44.762;37.698;2023-04-10T14:20:32;18.60;;;9.52;;
75781;SDS011;64400;44.762;37.698;2023-04-10T14:23:00;22.90;;;9.30;;
75781;SDS011;64400;44.762;37.698;2023-04-10T14:25:33;17.83;;;9.48;;
75781;SDS011;64400;44.762;37.698;2023-04-10T14:28:01;15.10;;;8.55;;
75781;SDS011;64400;44.762;37.698;2023-04-10T14:30:29;15.00;;;6.95;;
75781;SDS011;64400;44.762;37.698;2023-04-10T14:32:59;17.70;;;8.02;;
75781;SDS011;64400;44.762;37.698;2023-04-10T14:35:27;17.48;;;8.25;;
75781;SDS011;64400;44.762;37.698;2023-04-10T14:37:55;17.98;;;8.20;;
75781;SDS011;64400;44.762;37.698;2023-04-10T14:40:24;13.38;;;7.95;;
75781;SDS011;64400;44.762;37.698;2023-04-10T14:42:52;14.18;;;7.32;;
75781;SDS011;64400;44.762;37.698;2023-04-10T14:45:20;15.50;;;8.02;;
75781;SDS011;64400;44.762;37.698;2023-04-10T14:47:48;15.48;;;7.30;;
75781;SDS011;64400;44.762;37.698;2023-04-10T14:50:17;12.45;;;6.88;;
75781;SDS011;64400;44.762;37.698;2023-04-10T14:52:45;12.98;;;7.15;;
75781;SDS011;64400;44.762;37.698;2023-04-10T14:55:13;12.07;;;7.45;;
75781;SDS011;64400;44.762;37.698;2023-04-10T14:57:47;11.93;;;6.93;;
75781;SDS011;64400;44.762;37.698;2023-04-10T15:00:15;13.70;;;6.72;;
75781;SDS011;64400;44.762;37.698;2023-04-10T15:02:44;12.45;;;6.60;;
75781;SDS011;64400;44.762;37.698;2023-04-10T15:05:12;15.00;;;8.02;;
75781;SDS011;64400;44.762;37.698;2023-04-10T15:07:40;11.57;;;6.75;;
75781;SDS011;64400;44.762;37.698;2023-04-10T15:10:08;15.15;;;7.38;;
75781;SDS011;64400;44.762;37.698;2023-04-10T15:12:38;12.60;;;7.50;;
75781;SDS011;64400;44.762;37.698;2023-04-10T15:15:06;12.07;;;7.10;;
75781;SDS011;64400;44.762;37.698;2023-04-10T15:17:35;11.20;;;6.82;;
75781;SDS011;64400;44.762;37.698;2023-04-10T15:20:03;9.05;;;6.32;;
75781;SDS011;64400;44.762;37.698;2023-04-10T15:22:32;10.70;;;5.93;;
75781;SDS011;64400;44.762;37.698;2023-04-10T15:25:01;13.23;;;6.40;;
75781;SDS011;64400;44.762;37.698;2023-04-10T15:27:33;8.93;;;5.75;;
75781;SDS011;64400;44.762;37.698;2023-04-10T15:30:02;13.85;;;6.43;;
75781;SDS011;64400;44.762;37.698;2023-04-10T15:32:31;10.10;;;5.72;;
75781;SDS011;64400;44.762;37.698;2023-04-10T15:34:59;9.65;;;5.93;;
75781;SDS011;64400;44.762;37.698;2023-04-10T15:37:29;10.65;;;5.82;;
75781;SDS011;64400;44.762;37.698;2023-04-10T15:39:57;10.80;;;5.25;;
75781;SDS011;64400;44.762;37.698;2023-04-10T15:42:25;7.55;;;4.97;;
75781;SDS011;64400;44.762;37.698;2023-04-10T15:44:54;8.93;;;5.35;;
75781;SDS011;64400;44.762;37.698;2023-04-10T15:47:22;8.57;;;5.03;;
75781;SDS011;64400;44.762;37.698;2023-04-10T15:49:51;8.15;;;5.15;;
75781;SDS011;64400;44.762;37.698;2023-04-10T15:52:19;10.70;;;6.18;;
75781;SDS011;64400;44.762;37.698;2023-04-10T15:54:47;13.27;;;7.30;;
75781;SDS011;64400;44.762;37.698;2023-04-10T15:57:21;8.02;;;5.10;;
75781;SDS011;64400;44.762;37.698;2023-04-10T15:59:52;10.30;;;5.35;;
75781;SDS011;64400;44.762;37.698;2023-04-10T16:02:22;9.55;;;4.60;;
75781;SDS011;64400;44.762;37.698;2023-04-10T16:04:51;8.35;;;5.38;;